UPSVAC Airport Information Service

Rutland – Southern Vermont Regional Airport

ICAO: KRUT Country: Rutland, Vermont USA
Latitude: 43.53 Longitude: -72.9497
Latest Arrival : AMF2014 (KALB-KRUT) Latest Departure : AMF2015 (KRUT-KMHT)


WX CaptureLIVE
Data provided by noaa.gov | Fetched at 14:09:30

METAR : KRUT 141356Z AUTO 00000KT 10SM OVC095 13/04 A3003 RMK AO2 SLP164 T01280044 $

TAF : KRUT 141120Z 1412/1512 13004KT P6SM BKN070 FM141400 VRB04KT P6SM SCT050 FM150000 13009KT P6SM SCT070 FM150400 13008KT P6SM VCSH SCT045 FM150800 12012KT P6SM VCSH BKN028


Runway Data for KRUT
Data provided by openaviationdata.com

Runway ID Mag Var Hdg Length Elevation Surface ILS Freq ILS Id ILS Slope
1 -15 13° 5001 ft 787 ft Asphalt -- -- --
13 -15 133° 3165 ft 787 ft Asphalt -- -- --
19 -15 193° 5001 ft 787 ft Asphalt 111.7 IRUT 0
31 -15 313° 3165 ft 787 ft Asphalt -- -- --

Rutland – Southern Vermont Regional Airport, Rutland, Vermont USA
Use only for reference purposes



Not for navigational purposes.